Time;durP1;ratioP1;P1;durP2;ratioP2;P2;SDS_P1;SDS_P2;PMS_P1;PMS_P2;Temp;Humidity;BMP_temperature;BMP_pressure;BME280_temperature;BME280_humidity;BME280_pressure;Samples;Min_cycle;Max_cycle;Signal;HPM_P1;HPM_P2
2022/01/26 00:00:04;;;;;;;73.97;26.40;;;;;;;-1.23;100.00;97011.63;5023867;28;20045;-43
2022/01/26 00:08:09;;;;;;;74.32;27.88;;;;;;;-0.13;96.83;97009.13;5023198;28;20053;-43
2022/01/26 00:10:36;;;;;;;77.88;27.77;;;;;;;0.00;95.55;97011.53;5034929;28;20132;-44
2022/01/26 00:13:03;;;;;;;75.38;29.63;;;;;;;-0.07;95.14;97016.97;5033820;28;20064;-45
2022/01/26 00:15:31;;;;;;;88.90;30.58;;;;;;;-0.21;96.11;97012.16;5018729;28;20041;-45
2022/01/26 00:17:58;;;;;;;73.25;27.77;;;;;;;-0.20;95.37;97008.47;5032579;28;20076;-43
2022/01/26 00:20:38;;;;;;;75.00;27.63;;;;;;;-0.38;95.85;97012.91;5015217;28;20080;-44
2022/01/26 00:25:59;;;;;;;74.57;26.70;;;;;;;-0.10;94.82;97012.13;5014922;28;20108;-44
2022/01/26 00:28:45;;;;;;;72.43;26.65;;;;;;;-0.54;97.38;97013.66;5015844;28;20038;-43
2022/01/26 00:32:56;;;;;;;79.00;28.73;;;;;;;-0.14;94.49;97010.97;5013579;28;20403;-45
2022/01/26 00:39:39;;;;;;;75.53;28.13;;;;;;;-0.32;94.29;96993.38;5035902;28;20054;-44
2022/01/26 00:42:06;;;;;;;76.30;28.35;;;;;;;-0.49;94.94;96988.00;5015174;28;20046;-43
2022/01/26 00:44:43;;;;;;;75.70;29.25;;;;;;;-0.43;94.73;96988.88;5015978;28;20332;-43
2022/01/26 00:47:11;;;;;;;76.65;28.63;;;;;;;-0.49;95.06;96984.50;5029887;28;20041;-45
2022/01/26 00:49:38;;;;;;;74.47;27.77;;;;;;;-0.42;93.65;96987.84;5034813;28;20053;-43
2022/01/26 00:52:07;;;;;;;71.90;27.00;;;;;;;-1.11;99.36;96992.22;5032782;28;20561;-43
2022/01/26 00:54:34;;;;;;;72.80;26.98;;;;;;;-1.28;98.15;96992.13;4996729;28;20046;-44
2022/01/26 00:57:02;;;;;;;77.28;27.40;;;;;;;-1.29;100.00;97001.94;5013105;28;20128;-43
2022/01/26 00:59:29;;;;;;;69.60;26.42;;;;;;;-1.54;100.00;97003.97;5014929;28;20073;-43
2022/01/26 01:01:56;;;;;;;71.57;25.67;;;;;;;-1.32;100.00;96999.75;5015233;28;20129;-43
2022/01/26 01:04:24;;;;;;;63.50;25.40;;;;;;;-1.76;100.00;97004.50;5009311;28;20053;-43
2022/01/26 01:06:57;;;;;;;70.13;26.45;;;;;;;-1.98;100.00;96992.78;5014005;28;20419;-44
2022/01/26 01:09:24;;;;;;;66.80;25.95;;;;;;;-1.86;100.00;97000.78;4996658;28;20068;-44
2022/01/26 01:11:56;;;;;;;73.60;26.90;;;;;;;-0.97;100.00;96998.94;5022708;28;20043;-45
2022/01/26 01:14:24;;;;;;;65.18;26.25;;;;;;;-0.91;99.42;96992.69;4996394;28;20137;-45
2022/01/26 01:16:53;;;;;;;75.50;28.63;;;;;;;-0.74;96.82;96988.28;5013533;28;20132;-44
2022/01/26 01:19:38;;;;;;;75.13;28.30;;;;;;;-0.81;96.81;96981.47;4997172;28;20065;-45
2022/01/26 01:28:44;;;;;;;84.40;29.23;;;;;;;-0.66;96.00;96973.81;5018654;28;20064;-44
2022/01/26 01:30:31;;;;;;;69.63;26.77;;;;;;;-1.19;96.95;96970.28;5017157;28;20074;-47
2022/01/26 01:33:07;;;;;;;81.18;27.92;;;;;;;-0.55;95.55;96980.94;5022632;28;20049;-44
2022/01/26 01:35:38;;;;;;;81.20;27.90;;;;;;;-1.00;98.47;96989.56;5013193;28;20103;-46
2022/01/26 01:38:17;;;;;;;79.07;28.27;;;;;;;-0.83;96.29;96987.00;5010170;28;20048;-43
2022/01/26 01:40:48;;;;;;;67.90;25.75;;;;;;;-0.53;96.47;96994.00;5033396;28;20049;-44
2022/01/26 01:43:17;;;;;;;71.03;26.60;;;;;;;-0.54;95.30;96993.19;5031149;28;20065;-46
2022/01/26 01:45:48;;;;;;;65.85;26.25;;;;;;;-0.64;95.37;96984.22;5032658;28;20045;-46
2022/01/26 01:48:19;;;;;;;78.30;27.45;;;;;;;-0.79;95.89;96985.50;5032946;28;20132;-43
2022/01/26 01:50:50;;;;;;;73.80;26.85;;;;;;;-0.90;96.46;96975.72;5032181;28;20188;-45
2022/01/26 01:53:18;;;;;;;81.53;27.23;;;;;;;-1.15;97.33;96973.28;5012944;28;20117;-46
2022/01/26 01:55:49;;;;;;;79.78;28.67;;;;;;;-1.16;97.64;96971.69;5032519;28;20052;-43
2022/01/26 01:58:18;;;;;;;74.72;27.67;;;;;;;-1.15;97.81;96967.97;5032564;28;20395;-44
2022/01/26 02:00:46;;;;;;;76.97;25.88;;;;;;;-1.12;96.85;96964.06;5024694;28;20384;-45
2022/01/26 02:03:13;;;;;;;62.65;24.30;;;;;;;-1.94;100.00;96967.47;5012893;28;20057;-43
2022/01/26 02:05:40;;;;;;;64.57;24.98;;;;;;;-1.55;99.02;96965.22;5012770;28;20057;-43
2022/01/26 02:08:07;;;;;;;68.00;24.52;;;;;;;-1.80;100.00;96974.16;5012489;28;20060;-47
2022/01/26 02:10:35;;;;;;;69.22;25.35;;;;;;;-1.22;99.44;96973.41;4998220;28;20599;-43
2022/01/26 02:13:13;;;;;;;77.30;23.80;;;;;;;-2.31;100.00;96964.91;5032585;28;20053;-43
2022/01/26 02:15:51;;;;;;;62.20;24.15;;;;;;;-2.60;100.00;96963.84;5032005;28;20041;-45
2022/01/26 03:06:59;;;;;;;84.60;24.35;;;;;;;-2.79;100.00;96927.81;5031245;28;20046;-47
2022/01/26 03:09:32;;;;;;;76.93;24.67;;;;;;;-2.88;100.00;96940.56;5013482;28;20048;-46
2022/01/26 03:12:00;;;;;;;68.30;24.15;;;;;;;-2.68;100.00;96929.75;5019921;28;20053;-45
2022/01/26 03:14:39;;;;;;;68.13;24.15;;;;;;;-2.17;100.00;96934.53;5011800;28;20045;-45
2022/01/26 03:17:24;;;;;;;69.43;25.13;;;;;;;-2.38;100.00;96930.53;5011165;28;20042;-47
2022/01/26 03:19:55;;;;;;;70.68;26.27;;;;;;;-2.28;100.00;96934.50;5024143;28;20059;-45
2022/01/26 03:35:48;;;;;;;81.88;25.05;;;;;;;-2.84;100.00;96936.44;5014509;28;20128;-44
2022/01/26 03:38:24;;;;;;;71.28;25.08;;;;;;;-1.96;100.00;96937.69;5031330;28;20060;-45
2022/01/26 03:40:58;;;;;;;70.65;23.88;;;;;;;-1.89;100.00;96941.03;5023085;28;20136;-42
2022/01/26 03:43:26;;;;;;;75.25;24.20;;;;;;;-2.21;100.00;96933.38;5022674;28;20070;-43
2022/01/26 03:45:53;;;;;;;65.47;24.10;;;;;;;-2.64;100.00;96930.91;5016195;28;20050;-44
2022/01/26 03:48:20;;;;;;;70.95;23.25;;;;;;;-2.75;100.00;96945.72;5029593;28;20038;-43
2022/01/26 03:50:47;;;;;;;62.53;24.00;;;;;;;-2.83;100.00;96943.34;5018444;28;20161;-45
2022/01/26 03:53:14;;;;;;;77.88;25.42;;;;;;;-2.75;100.00;96948.38;5002437;28;20072;-46
2022/01/26 03:55:41;;;;;;;98.07;25.40;;;;;;;-2.95;100.00;96953.09;5024569;28;20049;-44
2022/01/26 03:58:08;;;;;;;74.10;24.83;;;;;;;-2.58;100.00;96951.19;5027540;28;20084;-46
2022/01/26 04:00:36;;;;;;;141.43;24.80;;;;;;;-3.04;100.00;96946.47;5019966;28;20042;-43
2022/01/26 04:03:03;;;;;;;108.60;24.63;;;;;;;-2.85;100.00;96946.25;5028427;28;20338;-44
2022/01/26 04:05:31;;;;;;;73.25;25.85;;;;;;;-1.92;100.00;96944.97;5021317;28;20041;-44
2022/01/26 04:08:04;;;;;;;72.05;25.00;;;;;;;-1.60;100.00;96941.19;5029086;28;20041;-46
2022/01/26 04:13:07;;;;;;;72.43;28.08;;;;;;;-1.48;98.98;96944.69;5021989;28;20081;-43
2022/01/26 04:15:35;;;;;;;71.18;25.35;;;;;;;-1.48;99.90;96947.34;5025156;28;20125;-44
2022/01/26 04:18:06;;;;;;;70.95;26.73;;;;;;;-1.45;98.70;96945.03;5023018;28;20056;-43
2022/01/26 04:20:38;;;;;;;72.88;26.85;;;;;;;-1.56;98.68;96950.31;5013584;28;20046;-43
2022/01/26 04:23:20;;;;;;;77.00;28.45;;;;;;;-1.46;98.36;96955.88;5020181;28;20168;-44
2022/01/26 04:25:49;;;;;;;73.28;25.45;;;;;;;-1.53;98.22;96948.00;5018173;28;20038;-44
2022/01/26 04:28:22;;;;;;;73.65;25.95;;;;;;;-1.58;98.53;96949.75;5026623;28;20077;-42
2022/01/26 04:30:50;;;;;;;66.55;25.85;;;;;;;-1.52;98.22;96951.50;5025012;28;20088;-45
2022/01/26 04:33:17;;;;;;;82.45;27.73;;;;;;;-1.42;97.08;96949.06;5028835;28;20046;-46
2022/01/26 04:35:46;;;;;;;80.57;26.90;;;;;;;-1.72;98.40;96936.72;5029217;28;20080;-44
2022/01/26 04:40:52;;;;;;;81.82;28.20;;;;;;;-1.67;98.33;96936.81;5025730;28;20574;-43
2022/01/26 04:43:32;;;;;;;75.00;26.30;;;;;;;-1.55;98.40;96950.09;5019842;28;20053;-43
2022/01/26 04:46:00;;;;;;;82.20;27.13;;;;;;;-1.50;98.86;96949.41;5029515;28;20049;-45
2022/01/26 04:48:27;;;;;;;74.68;27.10;;;;;;;-1.45;97.17;96947.69;5025053;28;20065;-44
2022/01/26 04:50:54;;;;;;;84.60;26.75;;;;;;;-1.57;96.85;96944.19;5032809;28;20042;-43
2022/01/26 04:53:21;;;;;;;73.00;27.75;;;;;;;-1.29;96.84;96951.50;5007980;28;20399;-44
2022/01/26 04:55:48;;;;;;;79.13;27.27;;;;;;;-1.29;95.74;96942.72;4995005;28;20497;-43
2022/01/26 04:58:15;;;;;;;78.65;27.67;;;;;;;-1.28;95.71;96958.41;5033314;28;20046;-43
2022/01/26 05:00:42;;;;;;;76.60;27.05;;;;;;;-1.20;95.95;96950.09;5021779;28;20155;-43
2022/01/26 05:03:09;;;;;;;76.30;27.50;;;;;;;-2.01;98.58;96954.28;5033635;28;20045;-43
2022/01/26 05:05:39;;;;;;;71.85;26.35;;;;;;;-2.56;100.00;96957.09;5033594;28;20128;-42
2022/01/26 05:08:06;;;;;;;73.05;25.60;;;;;;;-2.36;100.00;96960.28;5027531;28;20048;-47
2022/01/26 05:10:34;;;;;;;64.68;25.73;;;;;;;-2.09;100.00;96948.50;5021381;28;20507;-43
2022/01/26 05:13:01;;;;;;;66.90;25.38;;;;;;;-1.60;99.44;96949.16;5033685;28;20038;-55
2022/01/26 05:15:28;;;;;;;71.18;25.83;;;;;;;-1.30;97.15;96951.69;5033823;28;20044;-45
2022/01/26 05:17:55;;;;;;;67.55;25.42;;;;;;;-1.43;96.60;96950.09;5019520;28;20052;-45
2022/01/26 05:20:22;;;;;;;68.97;28.55;;;;;;;-1.56;97.11;96945.00;5033460;28;20432;-42
2022/01/26 05:22:49;;;;;;;77.53;26.60;;;;;;;-1.46;96.72;96943.41;5025432;28;20046;-42
2022/01/26 05:25:16;;;;;;;70.65;26.13;;;;;;;-1.35;95.98;96955.06;4996661;28;20112;-41
2022/01/26 05:27:43;;;;;;;75.20;26.15;;;;;;;-1.36;95.46;96948.16;5013018;28;20112;-45
2022/01/26 05:30:10;;;;;;;70.70;28.02;;;;;;;-1.59;96.57;96958.72;5013219;28;20483;-41
2022/01/26 05:32:37;;;;;;;72.28;27.52;;;;;;;-1.85;98.03;96949.34;4995866;28;20053;-41
2022/01/26 05:35:04;;;;;;;71.22;25.85;;;;;;;-1.60;97.19;96941.19;5019735;28;20494;-41
2022/01/26 05:37:31;;;;;;;69.82;27.73;;;;;;;-1.50;96.09;96939.59;5031989;28;20071;-43
2022/01/26 05:39:58;;;;;;;71.13;27.15;;;;;;;-1.49;96.29;96943.06;5032668;28;20042;-43
2022/01/26 05:42:26;;;;;;;73.68;27.67;;;;;;;-1.32;95.82;96936.03;5033022;28;20041;-46
2022/01/26 05:44:55;;;;;;;72.75;27.63;;;;;;;-1.71;98.47;96938.31;5033013;28;20125;-44
2022/01/26 05:47:22;;;;;;;70.35;27.55;;;;;;;-1.51;96.06;96939.81;5012867;28;20045;-43
2022/01/26 05:49:49;;;;;;;62.53;25.38;;;;;;;-1.93;97.59;96947.84;5027952;28;20049;-42
2022/01/26 05:52:16;;;;;;;67.18;25.58;;;;;;;-1.55;96.21;96949.28;5028863;28;20045;-43
2022/01/26 05:54:43;;;;;;;63.20;26.83;;;;;;;-1.52;96.97;96954.16;5011795;28;20037;-42
2022/01/26 05:57:10;;;;;;;66.03;25.98;;;;;;;-1.37;96.14;96965.09;5013084;28;20403;-41
2022/01/26 05:59:36;;;;;;;67.93;27.45;;;;;;;-1.44;95.40;96962.56;5029421;28;20045;-42
2022/01/26 06:02:04;;;;;;;68.20;26.90;;;;;;;-1.59;96.54;96959.56;5023788;28;20056;-42
2022/01/26 06:04:31;;;;;;;64.78;26.63;;;;;;;-1.57;96.01;96954.81;5032319;28;20414;-41
2022/01/26 06:06:58;;;;;;;62.45;24.80;;;;;;;-1.40;95.46;96957.59;5032370;28;20125;-41
2022/01/26 06:09:25;;;;;;;63.20;25.67;;;;;;;-1.54;96.21;96957.00;5023397;28;20092;-42
2022/01/26 06:11:52;;;;;;;62.65;25.45;;;;;;;-1.97;96.86;96957.31;5013328;28;20045;-42
2022/01/26 06:14:19;;;;;;;59.40;24.42;;;;;;;-1.90;99.07;96950.03;4995481;28;20510;-42
2022/01/26 06:16:46;;;;;;;57.10;23.77;;;;;;;-1.97;97.92;96952.81;5012382;28;20046;-43
2022/01/26 06:19:13;;;;;;;57.45;23.92;;;;;;;-1.62;97.19;96943.28;4979157;28;20084;-41
2022/01/26 06:21:40;;;;;;;56.95;24.40;;;;;;;-1.54;95.27;96954.34;5012654;28;20461;-42
2022/01/26 06:24:07;;;;;;;56.40;23.73;;;;;;;-1.83;95.91;96947.28;5012225;28;20132;-43
2022/01/26 06:26:34;;;;;;;57.92;23.30;;;;;;;-2.26;99.36;96949.16;5022502;28;20044;-42
2022/01/26 06:29:01;;;;;;;58.58;23.98;;;;;;;-2.54;100.00;96938.31;5031812;28;20072;-41
2022/01/26 06:31:28;;;;;;;51.80;21.75;;;;;;;-2.67;100.00;96956.00;5032083;28;20123;-41
2022/01/26 06:33:56;;;;;;;54.05;21.20;;;;;;;-2.65;100.00;96953.94;5010960;28;20058;-41
2022/01/26 06:36:24;;;;;;;47.78;20.83;;;;;;;-3.04;100.00;96957.06;5012548;28;20052;-42
2022/01/26 06:38:51;;;;;;;47.55;21.52;;;;;;;-3.30;100.00;96954.47;5013762;28;20046;-48
2022/01/26 06:41:23;;;;;;;49.00;21.60;;;;;;;-3.26;100.00;96956.66;4999443;28;20055;-42
2022/01/26 06:43:57;;;;;;;49.63;20.80;;;;;;;-3.13;100.00;96953.88;5003555;28;20430;-42
2022/01/26 06:46:34;;;;;;;53.00;22.77;;;;;;;-3.15;100.00;96959.41;5025171;28;20121;-43
2022/01/26 06:51:47;;;;;;;50.45;21.38;;;;;;;-2.94;100.00;96963.44;5031847;28;20388;-42
2022/01/26 06:54:17;;;;;;;46.08;19.88;;;;;;;-2.84;100.00;96947.84;5025543;28;20049;-42
2022/01/26 06:56:45;;;;;;;40.45;19.80;;;;;;;-2.96;100.00;96962.03;5013805;28;20044;-43
2022/01/26 06:59:17;;;;;;;56.15;20.08;;;;;;;-2.90;100.00;96958.50;5031131;28;20045;-44
2022/01/26 07:01:44;;;;;;;42.70;19.48;;;;;;;-2.78;100.00;96970.00;5003652;28;20441;-46
2022/01/26 07:04:12;;;;;;;44.20;19.70;;;;;;;-2.62;100.00;96966.75;5030293;28;20076;-45
2022/01/26 07:06:39;;;;;;;44.15;18.83;;;;;;;-2.71;100.00;96976.00;5012828;28;20558;-44
2022/01/26 07:09:06;;;;;;;41.42;18.88;;;;;;;-3.13;100.00;96981.16;5014441;28;20541;-43
2022/01/26 07:11:33;;;;;;;43.60;19.60;;;;;;;-2.79;100.00;96978.97;5016371;28;20617;-44
2022/01/26 07:14:02;;;;;;;38.53;18.27;;;;;;;-3.24;100.00;96973.97;5022416;28;20041;-43
2022/01/26 07:19:50;;;;;;;41.90;19.90;;;;;;;-2.99;100.00;96981.00;5024332;28;20037;-45
2022/01/26 07:22:13;;;;;;;35.53;17.05;;;;;;;-3.22;100.00;96965.78;5028287;28;20157;-47
2022/01/26 07:24:41;;;;;;;39.83;19.17;;;;;;;-2.97;100.00;96973.69;5025790;28;20077;-44
2022/01/26 07:27:10;;;;;;;43.15;19.40;;;;;;;-2.29;100.00;96970.81;5006041;28;20108;-45
2022/01/26 07:29:38;;;;;;;44.20;19.13;;;;;;;-2.72;100.00;96974.41;5013739;28;20091;-48
2022/01/26 07:32:06;;;;;;;35.40;17.67;;;;;;;-3.15;100.00;96970.00;5023893;28;20507;-47
2022/01/26 07:34:34;;;;;;;42.25;18.48;;;;;;;-2.59;100.00;96976.91;4981468;28;20517;-43
2022/01/26 07:37:06;;;;;;;43.40;19.88;;;;;;;-1.98;97.41;96968.94;5033994;28;20069;-43
2022/01/26 07:40:18;;;;;;;43.95;18.50;;;;;;;-2.48;98.82;96977.16;5029174;28;20167;-43
2022/01/26 07:42:20;;;;;;;36.75;17.17;;;;;;;-3.21;100.00;96973.53;5001593;28;20144;-42
2022/01/26 07:44:49;;;;;;;37.53;16.73;;;;;;;-3.05;100.00;96977.44;5030564;28;20045;-43
2022/01/26 07:47:16;;;;;;;34.88;16.67;;;;;;;-3.10;100.00;96972.78;5031098;28;20051;-42
2022/01/26 07:49:43;;;;;;;35.03;16.33;;;;;;;-3.16;100.00;96970.19;5011958;28;20132;-46
2022/01/26 07:52:10;;;;;;;37.17;16.83;;;;;;;-3.03;100.00;96974.56;5028601;28;20084;-43
2022/01/26 07:54:37;;;;;;;33.42;16.50;;;;;;;-3.31;100.00;96962.63;5028653;28;20048;-41
2022/01/26 07:57:06;;;;;;;29.75;15.02;;;;;;;-3.22;100.00;96979.00;5030375;28;20133;-42
2022/01/26 07:59:34;;;;;;;33.25;15.88;;;;;;;-2.48;99.84;96971.88;5013475;28;20509;-43
2022/01/26 08:02:01;;;;;;;32.65;16.08;;;;;;;-2.66;98.38;96965.56;5030590;28;20072;-43
2022/01/26 08:04:29;;;;;;;31.83;14.82;;;;;;;-3.09;99.99;96969.13;5010775;28;20045;-44
2022/01/26 08:06:56;;;;;;;33.22;16.08;;;;;;;-3.06;100.00;96971.31;5013838;28;20111;-42
2022/01/26 08:09:24;;;;;;;31.48;15.82;;;;;;;-2.98;99.51;96972.06;5030586;28;20407;-42
2022/01/26 08:11:51;;;;;;;32.58;15.57;;;;;;;-2.99;98.99;96965.97;5032778;28;20506;-42
2022/01/26 08:14:19;;;;;;;30.23;16.20;;;;;;;-2.51;98.36;96964.38;5015123;28;20458;-46
2022/01/26 08:16:46;;;;;;;30.42;14.43;;;;;;;-2.83;97.90;96967.19;5020970;28;20107;-43
2022/01/26 08:19:14;;;;;;;29.33;15.57;;;;;;;-2.91;97.86;96970.16;5030011;28;20080;-41
2022/01/26 08:21:42;;;;;;;28.20;14.45;;;;;;;-2.61;97.19;96967.53;5038347;28;20494;-42
2022/01/26 08:24:15;;;;;;;31.45;16.42;;;;;;;-2.64;98.24;96966.16;5015827;28;20509;-43
2022/01/26 08:26:47;;;;;;;;;;;;;;;-2.75;99.05;96966.91;4996221;28;20137;-42
2022/01/26 08:29:18;;;;;;;34.85;15.80;;;;;;;-2.65;99.92;96961.09;5028298;28;19921;-43
2022/01/26 08:31:46;;;;;;;35.13;17.15;;;;;;;-2.54;98.89;96956.88;5018965;28;20046;-43
2022/01/26 08:34:13;;;;;;;35.72;17.02;;;;;;;-2.33;98.81;96948.44;5032414;28;20494;-42
2022/01/26 08:36:40;;;;;;;34.55;17.25;;;;;;;-2.43;98.66;96958.78;5033931;28;20057;-43
2022/01/26 08:39:07;;;;;;;39.85;18.88;;;;;;;-2.50;98.44;96955.38;5031759;28;20119;-43
2022/01/26 08:41:34;;;;;;;35.15;18.40;;;;;;;-2.39;98.73;96954.63;5034583;28;20053;-43
2022/01/26 08:44:01;;;;;;;37.40;17.35;;;;;;;-2.64;98.56;96952.91;5034334;28;20049;-41
2022/01/26 08:46:29;;;;;;;34.05;15.93;;;;;;;-2.65;99.25;96953.94;5032425;28;20422;-43
2022/01/26 08:48:56;;;;;;;34.45;17.50;;;;;;;-2.50;98.86;96952.72;5024498;28;20038;-43
2022/01/26 08:51:23;;;;;;;36.00;18.13;;;;;;;-2.51;98.77;96967.00;5034514;28;20055;-42
2022/01/26 08:53:50;;;;;;;38.83;18.75;;;;;;;-2.47;98.58;96960.22;5027025;28;20068;-43
2022/01/26 08:56:17;;;;;;;34.15;17.58;;;;;;;-1.97;97.92;96975.88;5034625;28;20037;-42
2022/01/26 08:58:44;;;;;;;37.28;17.48;;;;;;;-2.18;96.51;96972.69;5034467;28;20034;-43
2022/01/26 09:01:11;;;;;;;36.55;16.48;;;;;;;-2.24;96.03;96984.19;5034231;28;20046;-42
2022/01/26 09:03:39;;;;;;;35.28;18.63;;;;;;;-2.35;96.98;96983.09;5034212;28;20080;-44
2022/01/26 09:06:10;;;;;;;37.65;18.48;;;;;;;-2.01;95.13;96983.47;5017682;28;20563;-44
2022/01/26 09:08:43;;;;;;;35.17;17.45;;;;;;;-1.99;94.79;96970.78;5010341;28;20446;-43
2022/01/26 09:11:11;;;;;;;32.63;17.40;;;;;;;-2.17;95.37;96973.50;5006768;28;20132;-44
2022/01/26 09:13:38;;;;;;;33.33;16.17;;;;;;;-2.09;94.63;96970.50;5034406;28;20124;-42
2022/01/26 09:16:08;;;;;;;36.83;17.48;;;;;;;-2.03;95.42;96969.63;5016063;28;20083;-45
2022/01/26 09:18:52;;;;;;;34.38;18.17;;;;;;;-1.46;93.41;96964.66;5028989;28;20061;-44
2022/01/26 09:21:21;;;;;;;33.42;17.00;;;;;;;-1.67;93.52;96975.81;5016421;28;20137;-42
2022/01/26 09:23:48;;;;;;;29.63;14.15;;;;;;;-1.82;92.50;96975.41;5014019;28;20048;-43
2022/01/26 09:26:15;;;;;;;35.63;16.98;;;;;;;-1.63;92.92;96962.88;5030505;28;20124;-44
2022/01/26 09:28:43;;;;;;;29.67;15.75;;;;;;;-1.35;91.39;96965.69;5004673;28;20046;-42
2022/01/26 09:31:15;;;;;;;31.50;16.02;;;;;;;-1.46;92.77;96969.97;5033044;28;20538;-42
2022/01/26 09:33:42;;;;;;;32.88;16.98;;;;;;;-1.37;93.27;96965.09;5024802;28;20038;-42
2022/01/26 09:36:09;;;;;;;30.42;16.33;;;;;;;-1.09;92.01;96953.78;4999967;28;20045;-42
2022/01/26 09:38:38;;;;;;;31.23;14.93;;;;;;;-1.08;90.27;96954.59;5033395;28;20060;-41
2022/01/26 09:41:08;;;;;;;32.92;16.98;;;;;;;-1.06;89.83;96963.94;5013164;28;20050;-45
2022/01/26 09:43:35;;;;;;;33.30;17.30;;;;;;;-0.74;89.97;96966.22;5032001;28;20041;-41
2022/01/26 09:46:03;;;;;;;30.95;15.73;;;;;;;-0.62;87.99;96966.97;4987451;28;20045;-42
2022/01/26 09:48:30;;;;;;;30.02;17.13;;;;;;;-0.68;88.58;96972.41;5026719;28;20096;-44
2022/01/26 09:50:58;;;;;;;34.20;16.17;;;;;;;-0.64;88.52;96966.41;5025534;28;20053;-42
2022/01/26 09:53:30;;;;;;;28.67;15.27;;;;;;;-0.54;88.61;96981.75;5023233;28;20181;-43
2022/01/26 09:55:58;;;;;;;31.50;16.70;;;;;;;-0.60;88.31;96977.38;5034171;28;20517;-43
2022/01/26 09:58:27;;;;;;;33.47;17.33;;;;;;;-0.16;87.83;96977.66;5029355;28;20041;-42
2022/01/26 10:01:04;;;;;;;35.58;18.13;;;;;;;-0.39;87.71;96971.44;5008089;28;20041;-43
2022/01/26 10:03:34;;;;;;;24.45;12.38;;;;;;;-0.58;87.63;96972.63;5013126;28;20499;-42
2022/01/26 10:06:03;;;;;;;24.88;13.50;;;;;;;-0.71;88.23;96963.88;5034668;28;20041;-41
2022/01/26 10:19:08;;;;;;;27.88;15.57;;;;;;;-0.37;86.72;96968.50;5013495;28;20512;-45
2022/01/26 10:21:52;;;;;;;29.58;15.60;;;;;;;-0.35;87.16;96969.91;5028178;28;20080;-44
2022/01/26 10:24:26;;;;;;;29.45;14.85;;;;;;;-0.36;87.19;96960.28;5011938;28;20053;-44
2022/01/26 10:26:59;;;;;;;31.35;16.92;;;;;;;-0.08;87.11;96964.81;5006844;28;20521;-42
2022/01/26 10:29:28;;;;;;;32.15;17.63;;;;;;;-0.26;87.55;96949.88;5027944;28;20132;-43
2022/01/26 10:31:55;;;;;;;27.25;15.30;;;;;;;-0.14;86.65;96965.75;5026263;28;20050;-42
2022/01/26 10:34:23;;;;;;;25.60;13.18;;;;;;;-0.21;86.89;96964.28;5002542;28;20076;-42
2022/01/26 10:36:57;;;;;;;32.88;16.75;;;;;;;-0.07;86.61;96960.28;5014574;28;20406;-42
2022/01/26 10:39:31;;;;;;;37.47;17.75;;;;;;;0.11;86.92;96970.72;5010138;28;20417;-42
2022/01/26 10:42:03;;;;;;;35.13;17.40;;;;;;;0.39;85.84;96969.88;5023037;28;20050;-44
2022/01/26 10:44:46;;;;;;;32.78;16.80;;;;;;;0.16;85.63;96962.00;5025170;28;20410;-43
2022/01/26 10:47:16;;;;;;;24.02;12.40;;;;;;;0.01;85.90;96956.44;5032297;28;20140;-41
2022/01/26 10:54:52;;;;;;;36.88;19.35;;;;;;;0.39;85.20;96926.47;5027730;28;20053;-45
2022/01/26 10:57:19;;;;;;;35.30;18.60;;;;;;;0.62;84.58;96926.28;5031834;28;20128;-45
2022/01/26 10:59:49;;;;;;;36.92;18.50;;;;;;;0.69;84.71;96924.25;5029628;28;20038;-43
2022/01/26 11:02:23;;;;;;;32.05;18.88;;;;;;;0.55;84.49;96914.97;5030450;28;20107;-45
2022/01/26 11:04:50;;;;;;;32.78;17.58;;;;;;;0.31;84.96;96898.41;5025788;28;20109;-45
2022/01/26 11:07:34;;;;;;;31.00;16.95;;;;;;;0.69;85.24;96894.16;5026791;28;20056;-45
2022/01/26 11:10:06;;;;;;;30.75;16.58;;;;;;;0.90;82.73;96889.91;4998063;28;20063;-43
2022/01/26 11:12:38;;;;;;;35.05;18.20;;;;;;;1.13;82.46;96889.66;5017771;28;20455;-44
2022/01/26 11:15:12;;;;;;;28.50;15.55;;;;;;;0.85;82.69;96895.97;5023507;28;20068;-44
2022/01/26 11:17:44;;;;;;;33.47;16.63;;;;;;;1.07;82.03;96888.00;4998393;28;20049;-42
2022/01/26 11:20:21;;;;;;;33.72;16.90;;;;;;;1.06;81.30;96877.59;5004861;28;20076;-46
2022/01/26 11:22:54;;;;;;;30.08;15.65;;;;;;;1.19;80.78;96874.53;5023124;28;20060;-45
2022/01/26 11:25:22;;;;;;;30.27;17.35;;;;;;;1.67;79.84;96880.94;5025126;28;20132;-45
2022/01/26 11:27:51;;;;;;;27.48;15.25;;;;;;;1.44;79.84;96883.88;5031046;28;20457;-44
2022/01/26 11:30:29;;;;;;;29.95;15.93;;;;;;;1.38;79.37;96883.81;5024625;28;20029;-44
2022/01/26 11:33:01;;;;;;;29.85;15.30;;;;;;;1.48;78.44;96879.66;5012376;28;20576;-44
2022/01/26 11:35:37;;;;;;;30.50;14.23;;;;;;;1.43;78.68;96891.09;5002008;28;20042;-44
2022/01/26 11:42:12;;;;;;;28.83;17.63;;;;;;;2.11;76.61;96880.78;5004874;28;20643;-45
2022/01/26 11:47:01;;;;;;;32.60;16.98;;;;;;;2.44;77.32;96898.41;5031976;28;20038;-45
2022/01/26 11:49:35;;;;;;;30.50;17.13;;;;;;;2.57;75.35;96889.94;5016817;28;20045;-42
2022/01/26 11:52:03;;;;;;;31.23;17.20;;;;;;;2.70;76.21;96891.38;5013910;28;20080;-43
2022/01/26 11:54:48;;;;;;;29.35;16.35;;;;;;;2.66;74.22;96905.47;4983409;28;20096;-44
2022/01/26 11:57:17;;;;;;;29.13;16.73;;;;;;;3.18;72.31;96910.84;5018756;28;20073;-44
2022/01/26 12:00:01;;;;;;;33.45;17.02;;;;;;;2.64;73.53;96902.28;5035024;28;20125;-44
2022/01/26 12:02:51;;;;;;;33.65;18.63;;;;;;;2.84;73.70;96893.59;5033701;28;20460;-42
2022/01/26 12:05:24;;;;;;;32.50;16.13;;;;;;;2.63;74.46;96884.63;5034243;28;20091;-42
2022/01/26 12:07:56;;;;;;;29.50;17.55;;;;;;;3.68;71.99;96887.22;5020164;28;20056;-42
2022/01/26 12:10:27;;;;;;;31.92;18.05;;;;;;;3.76;70.74;96892.03;5031725;28;20136;-44
2022/01/26 12:13:20;;;;;;;30.73;17.63;;;;;;;4.69;69.47;96899.03;5030767;28;20490;-43
2022/01/26 12:15:55;;;;;;;31.42;17.73;;;;;;;2.93;73.46;96905.41;5032011;28;20047;-45
2022/01/26 12:19:21;;;;;;;31.73;16.98;;;;;;;3.14;72.54;96907.09;5030761;28;20120;-44
2022/01/26 12:38:30;;;;;;;33.95;18.88;;;;;;;3.61;71.82;96900.84;5029324;28;20037;-41
2022/01/26 12:43:53;;;;;;;33.42;18.60;;;;;;;3.32;71.78;96894.34;5032931;28;20152;-44
2022/01/26 12:46:30;;;;;;;34.97;19.10;;;;;;;3.33;72.14;96888.72;5032604;28;20045;-43
2022/01/26 12:49:00;;;;;;;35.80;20.17;;;;;;;2.63;75.71;96881.94;5008682;28;20052;-41
2022/01/26 12:51:28;;;;;;;32.80;18.60;;;;;;;3.34;73.87;96887.63;5012185;28;20030;-47
2022/01/26 12:53:58;;;;;;;38.00;21.45;;;;;;;2.76;76.47;96878.81;5031458;28;20045;-45
2022/01/26 12:56:27;;;;;;;39.10;19.25;;;;;;;2.63;76.33;96863.25;5003004;28;20043;-46
2022/01/26 12:59:07;;;;;;;36.88;19.05;;;;;;;2.46;76.32;96861.53;5031986;28;20075;-42
2022/01/26 13:01:35;;;;;;;35.50;20.85;;;;;;;2.43;77.74;96870.06;5032802;28;20083;-42
2022/01/26 13:04:05;;;;;;;39.72;21.05;;;;;;;2.69;76.25;96864.88;5016361;28;20483;-42
2022/01/26 13:06:40;;;;;;;35.55;19.75;;;;;;;2.62;77.27;96858.97;5026472;28;20414;-42
2022/01/26 13:09:24;;;;;;;34.15;19.95;;;;;;;2.80;76.21;96864.69;5019339;28;20072;-42
2022/01/26 13:11:54;;;;;;;34.88;19.98;;;;;;;2.98;75.48;96870.66;5035140;28;20415;-42
2022/01/26 13:14:27;;;;;;;33.80;18.30;;;;;;;2.51;77.14;96861.59;4997489;28;20041;-43
2022/01/26 13:25:32;;;;;;;32.65;16.58;;;;;;;2.76;74.37;96860.94;5015186;28;20042;-42
2022/01/26 13:31:18;;;;;;;35.03;18.33;;;;;;;3.34;73.50;96865.44;5020377;28;20478;-42
2022/01/26 14:00:16;;;;;;;29.88;16.70;;;;;;;3.01;73.87;96870.94;5029885;28;20079;-42
2022/01/26 14:02:43;;;;;;;35.47;18.95;;;;;;;2.96;74.54;96868.25;5013269;28;20091;-42
2022/01/26 14:05:12;;;;;;;35.20;18.63;;;;;;;2.74;75.62;96880.97;5016006;28;20052;-45
2022/01/26 14:07:39;;;;;;;31.42;18.30;;;;;;;3.00;75.36;96866.66;4995828;28;20107;-43
2022/01/26 14:10:07;;;;;;;36.88;18.98;;;;;;;2.67;76.02;96864.34;5013226;28;20038;-42
2022/01/26 14:12:39;;;;;;;36.30;17.63;;;;;;;2.77;75.96;96864.41;5031571;28;20037;-43
2022/01/26 14:15:08;;;;;;;33.13;19.20;;;;;;;2.83;76.13;96871.41;5033333;28;20100;-44
2022/01/26 14:17:59;;;;;;;37.47;18.88;;;;;;;2.85;75.84;96855.88;5033051;28;20048;-44
2022/01/26 14:25:45;;;;;;;33.28;16.40;;;;;;;2.67;75.90;96861.69;5027334;28;20525;-43
2022/01/26 14:28:23;;;;;;;35.28;17.60;;;;;;;2.83;75.48;96851.84;5032328;28;20220;-44